Time;durP1;ratioP1;P1;durP2;ratioP2;P2;SDS_P1;SDS_P2;PMS_P1;PMS_P2;Temp;Humidity;BMP_temperature;BMP_pressure;BME280_temperature;BME280_humidity;BME280_pressure;Samples;Min_cycle;Max_cycle;Signal;HPM_P1;HPM_P2
2023/05/17 00:00:25;;;;;;;2.58;2.38;;;12.40;99.90;;;;;;5050722;28;20245;-70
2023/05/17 00:02:52;;;;;;;3.78;1.85;;;12.30;99.90;;;;;;5050095;28;20317;-71
2023/05/17 00:05:19;;;;;;;2.28;1.50;;;12.30;99.90;;;;;;5050665;28;20678;-70
2023/05/17 00:07:47;;;;;;;3.67;2.17;;;12.30;99.90;;;;;;5050276;28;20268;-71
2023/05/17 00:10:15;;;;;;;4.18;1.63;;;12.20;99.90;;;;;;5050709;28;20199;-70
2023/05/17 00:12:42;;;;;;;3.20;2.03;;;12.30;99.90;;;;;;5050420;28;20237;-71
2023/05/17 00:15:13;;;;;;;2.08;1.27;;;12.30;99.90;;;;;;5050851;28;20238;-70
2023/05/17 00:17:40;;;;;;;1.38;1.10;;;12.20;99.90;;;;;;5050253;28;20205;-70
2023/05/17 00:20:08;;;;;;;2.15;1.65;;;12.10;99.90;;;;;;5050743;28;20238;-70
2023/05/17 00:22:35;;;;;;;2.38;1.33;;;12.20;99.90;;;;;;5050734;28;20244;-70
2023/05/17 00:25:01;;;;;;;8.45;1.98;;;12.20;99.90;;;;;;5050237;28;20709;-71
2023/05/17 00:27:30;;;;;;;2.30;0.93;;;12.20;99.90;;;;;;5050642;28;20203;-71
2023/05/17 00:29:57;;;;;;;2.40;1.58;;;12.10;99.90;;;;;;5050240;28;20246;-72
2023/05/17 00:32:24;;;;;;;2.50;1.67;;;12.10;99.90;;;;;;5050478;28;20246;-72
2023/05/17 00:34:50;;;;;;;1.90;1.25;;;12.10;99.90;;;;;;5050029;28;20242;-73
2023/05/17 00:37:17;;;;;;;5.35;1.52;;;12.00;99.90;;;;;;5050602;28;20234;-72
2023/05/17 00:39:44;;;;;;;2.72;1.10;;;12.00;99.90;;;;;;5050154;28;20235;-73
2023/05/17 00:42:11;;;;;;;2.00;1.20;;;12.00;99.90;;;;;;5050324;28;20744;-72
2023/05/17 00:44:40;;;;;;;4.30;1.30;;;12.00;99.90;;;;;;5053632;28;20317;-72
2023/05/17 00:47:07;;;;;;;6.07;1.88;;;11.90;99.90;;;;;;5054389;28;20549;-70
2023/05/17 00:49:34;;;;;;;3.47;1.67;;;11.90;99.90;;;;;;5054367;28;20264;-70
2023/05/17 00:52:01;;;;;;;2.35;1.55;;;11.90;99.90;;;;;;5054272;28;20233;-70
2023/05/17 00:54:30;;;;;;;2.33;1.20;;;11.90;99.90;;;;;;5054299;28;20234;-70
2023/05/17 00:56:58;;;;;;;4.07;1.10;;;11.80;99.90;;;;;;5053775;28;20709;-70
2023/05/17 00:59:26;;;;;;;3.78;1.35;;;11.80;99.90;;;;;;5054267;28;20234;-70
2023/05/17 01:01:55;;;;;;;2.83;1.13;;;11.80;99.90;;;;;;5053395;28;20242;-70
2023/05/17 01:04:22;;;;;;;4.93;1.70;;;11.70;99.90;;;;;;5054115;28;20274;-70
2023/05/17 01:06:49;;;;;;;2.65;1.52;;;11.70;99.90;;;;;;5053470;28;20247;-70
2023/05/17 01:09:17;;;;;;;2.95;0.95;;;11.60;99.90;;;;;;5053791;28;20211;-70
2023/05/17 01:11:53;;;;;;;4.07;1.98;;;11.60;99.90;;;;;;5053338;28;20261;-70
2023/05/17 01:14:33;;;;;;;1.77;1.02;;;11.60;99.90;;;;;;5053532;28;20686;-70
2023/05/17 01:17:05;;;;;;;1.85;1.05;;;11.50;99.90;;;;;;5053369;28;20199;-70
2023/05/17 01:19:54;;;;;;;4.40;1.35;;;11.50;99.90;;;;;;5053964;28;20241;-70
2023/05/17 01:22:32;;;;;;;2.45;1.35;;;11.70;99.90;;;;;;5053432;28;20245;-71
2023/05/17 01:25:12;;;;;;;6.65;1.80;;;11.60;99.90;;;;;;5053050;28;20291;-71
2023/05/17 01:27:42;;;;;;;2.38;1.13;;;11.50;99.90;;;;;;5053067;28;20203;-71
2023/05/17 01:30:13;;;;;;;3.00;1.55;;;11.50;99.90;;;;;;5053303;28;20233;-70
2023/05/17 01:32:41;;;;;;;3.30;1.52;;;11.50;99.90;;;;;;5053047;28;20242;-71
2023/05/17 01:35:10;;;;;;;3.22;1.02;;;11.50;99.90;;;;;;5053437;28;20199;-71
2023/05/17 01:37:38;;;;;;;2.05;1.05;;;11.40;99.90;;;;;;5053089;28;20703;-72
2023/05/17 01:40:07;;;;;;;1.60;1.02;;;11.40;99.90;;;;;;5053845;28;20242;-71
2023/05/17 01:42:35;;;;;;;4.15;1.33;;;11.40;99.90;;;;;;5053644;28;20580;-71
2023/05/17 01:45:08;;;;;;;0.90;0.75;;;11.40;99.90;;;;;;5053119;28;20788;-71
2023/05/17 01:47:41;;;;;;;3.85;1.30;;;11.30;99.90;;;;;;5053425;28;20248;-71
2023/05/17 01:50:12;;;;;;;4.03;1.58;;;11.20;99.90;;;;;;5053004;28;20646;-71
2023/05/17 01:52:45;;;;;;;4.18;1.08;;;11.10;99.90;;;;;;5052633;28;20231;-71
2023/05/17 01:55:22;;;;;;;3.30;1.15;;;11.20;99.90;;;;;;5051759;28;20203;-71
2023/05/17 01:57:53;;;;;;;1.67;0.88;;;11.20;99.90;;;;;;5052616;28;20740;-71
2023/05/17 02:00:23;;;;;;;5.65;1.60;;;11.10;99.90;;;;;;5052942;28;20238;-70
2023/05/17 02:02:50;;;;;;;2.92;1.02;;;11.10;99.90;;;;;;5052248;28;20249;-71
2023/05/17 02:05:17;;;;;;;5.10;0.93;;;11.00;99.90;;;;;;5052713;28;20238;-71
2023/05/17 02:07:43;;;;;;;3.08;0.90;;;11.00;99.90;;;;;;5052294;28;20353;-71
2023/05/17 02:10:11;;;;;;;6.20;2.30;;;11.00;99.90;;;;;;5052854;28;20242;-71
2023/05/17 02:12:38;;;;;;;2.25;1.02;;;10.90;99.90;;;;;;5052213;28;20249;-71
2023/05/17 02:15:07;;;;;;;7.75;0.90;;;10.80;99.90;;;;;;5053173;28;20249;-71
2023/05/17 02:17:35;;;;;;;2.92;1.27;;;10.80;99.90;;;;;;5052870;28;20370;-71
2023/05/17 02:20:02;;;;;;;10.32;2.13;;;10.70;99.90;;;;;;5052544;28;20238;-71
2023/05/17 02:22:30;;;;;;;4.65;1.20;;;10.80;99.90;;;;;;5052363;28;20620;-71
2023/05/17 02:24:57;;;;;;;3.80;1.73;;;10.70;99.90;;;;;;5051988;28;20277;-71
2023/05/17 02:27:24;;;;;;;2.70;1.20;;;10.70;99.90;;;;;;5052352;28;20242;-71
2023/05/17 02:29:51;;;;;;;1.67;0.95;;;10.70;99.90;;;;;;5052197;28;20207;-70
2023/05/17 02:32:17;;;;;;;2.75;1.10;;;10.60;99.90;;;;;;5052334;28;20713;-71
2023/05/17 02:34:46;;;;;;;3.33;0.90;;;10.70;99.90;;;;;;5051788;28;20230;-71
2023/05/17 02:37:13;;;;;;;4.82;1.50;;;10.70;99.90;;;;;;5052259;28;20235;-70
2023/05/17 02:39:39;;;;;;;5.18;1.50;;;10.70;99.90;;;;;;5051866;28;20241;-71
2023/05/17 02:42:07;;;;;;;2.53;1.40;;;10.60;99.90;;;;;;5052027;28;20238;-71
2023/05/17 02:44:34;;;;;;;2.30;0.70;;;10.50;99.90;;;;;;5052370;28;20281;-72
2023/05/17 02:47:01;;;;;;;4.70;1.13;;;10.40;99.90;;;;;;5051595;28;20209;-72
2023/05/17 02:49:27;;;;;;;6.57;1.48;;;10.40;99.90;;;;;;5051596;28;20645;-71
2023/05/17 02:51:56;;;;;;;2.45;1.50;;;10.40;99.90;;;;;;5051629;28;20234;-71
2023/05/17 02:54:23;;;;;;;2.75;1.20;;;10.40;99.90;;;;;;5051818;28;20246;-71
2023/05/17 02:56:49;;;;;;;1.67;0.80;;;10.40;99.90;;;;;;5051683;28;20238;-70
2023/05/17 02:59:16;;;;;;;2.85;1.25;;;10.40;99.90;;;;;;5051958;28;20206;-70
2023/05/17 03:01:43;;;;;;;2.23;1.50;;;10.30;99.90;;;;;;5051290;28;20246;-70
2023/05/17 03:04:11;;;;;;;3.33;1.17;;;10.30;99.90;;;;;;5051326;28;20329;-70
2023/05/17 03:06:38;;;;;;;2.30;0.68;;;10.30;99.90;;;;;;5051063;28;20666;-71
2023/05/17 03:09:06;;;;;;;4.32;0.98;;;10.30;99.90;;;;;;5051827;28;20250;-71
2023/05/17 03:11:33;;;;;;;2.65;1.60;;;10.20;99.90;;;;;;5052081;28;20198;-70
2023/05/17 03:14:00;;;;;;;5.17;1.60;;;10.20;99.90;;;;;;5051269;28;20234;-70
2023/05/17 03:16:27;;;;;;;2.67;1.00;;;10.10;99.90;;;;;;5051668;28;20245;-71
2023/05/17 03:18:54;;;;;;;4.03;1.73;;;10.10;99.90;;;;;;5050864;28;20238;-70
2023/05/17 03:21:21;;;;;;;4.17;1.30;;;10.10;99.90;;;;;;5051354;28;20678;-71
2023/05/17 03:23:48;;;;;;;2.58;1.08;;;10.10;99.90;;;;;;5050686;28;20261;-71
2023/05/17 03:26:17;;;;;;;4.80;1.13;;;10.00;99.90;;;;;;5051365;28;20307;-71
2023/05/17 03:28:44;;;;;;;1.70;0.77;;;10.00;99.90;;;;;;5050840;28;20302;-71
2023/05/17 03:31:11;;;;;;;5.07;1.40;;;10.10;99.90;;;;;;5051342;28;20304;-70
2023/05/17 03:33:38;;;;;;;1.17;1.07;;;10.00;99.90;;;;;;5050582;28;20238;-70
2023/05/17 03:36:07;;;;;;;2.47;1.20;;;10.00;99.90;;;;;;5051398;28;20256;-71
2023/05/17 03:38:34;;;;;;;2.33;0.98;;;9.90;99.90;;;;;;5051098;28;20209;-71
2023/05/17 03:41:01;;;;;;;2.03;1.10;;;9.80;99.90;;;;;;5050992;28;20742;-71
2023/05/17 03:43:30;;;;;;;7.77;1.30;;;9.80;99.90;;;;;;5051086;28;20234;-71
2023/05/17 03:45:56;;;;;;;4.13;1.23;;;9.80;99.90;;;;;;5050758;28;20249;-70
2023/05/17 03:48:23;;;;;;;2.70;1.40;;;9.80;99.90;;;;;;5050883;28;20245;-71
2023/05/17 03:50:50;;;;;;;1.73;1.10;;;9.70;99.90;;;;;;5050104;28;20242;-71
2023/05/17 03:53:17;;;;;;;1.90;1.00;;;9.80;99.90;;;;;;5051154;28;20234;-71
2023/05/17 03:55:44;;;;;;;3.87;1.50;;;9.80;99.90;;;;;;5050432;28;20242;-71
2023/05/17 03:58:11;;;;;;;1.43;0.90;;;9.80;99.90;;;;;;5050771;28;20206;-71
2023/05/17 04:00:40;;;;;;;2.10;1.13;;;9.70;99.90;;;;;;5050466;28;20658;-70
2023/05/17 04:03:07;;;;;;;1.87;1.67;;;9.70;99.90;;;;;;5050169;28;20250;-70
2023/05/17 04:05:34;;;;;;;1.73;1.00;;;9.80;99.90;;;;;;5051078;28;20274;-70
2023/05/17 04:08:00;;;;;;;4.60;1.52;;;9.80;99.90;;;;;;5050422;28;20246;-71
2023/05/17 04:10:27;;;;;;;3.70;1.10;;;9.80;99.90;;;;;;5050836;28;20234;-71
2023/05/17 04:12:54;;;;;;;3.87;1.30;;;9.70;99.90;;;;;;5050322;28;20234;-71
2023/05/17 04:15:21;;;;;;;3.37;1.50;;;9.70;99.90;;;;;;5050735;28;20216;-71
2023/05/17 04:17:49;;;;;;;2.50;1.47;;;9.60;99.90;;;;;;5050653;28;20233;-71
2023/05/17 04:20:16;;;;;;;1.20;1.10;;;9.60;99.90;;;;;;5055171;28;20234;-71
2023/05/17 04:22:43;;;;;;;2.47;1.90;;;9.60;99.90;;;;;;5054444;28;20674;-71
2023/05/17 04:25:10;;;;;;;7.07;1.50;;;9.60;99.90;;;;;;5054541;28;20284;-71
2023/05/17 04:27:38;;;;;;;1.80;1.30;;;9.60;99.90;;;;;;5054694;28;20576;-71
2023/05/17 04:30:06;;;;;;;2.37;1.30;;;9.70;99.90;;;;;;5054981;28;20233;-71
2023/05/17 04:32:34;;;;;;;4.33;1.47;;;9.60;99.90;;;;;;5054695;28;20207;-71
2023/05/17 04:35:03;;;;;;;2.03;1.27;;;9.60;99.90;;;;;;5054671;28;20203;-71
2023/05/17 04:37:30;;;;;;;1.87;1.10;;;9.70;99.90;;;;;;5054494;28;20236;-71
2023/05/17 04:39:57;;;;;;;1.53;1.10;;;9.70;99.90;;;;;;5054224;28;20238;-71
2023/05/17 04:42:25;;;;;;;2.20;1.57;;;9.70;99.90;;;;;;5054353;28;20236;-71
2023/05/17 04:44:52;;;;;;;3.20;1.17;;;9.80;99.90;;;;;;5053821;28;20577;-70
2023/05/17 04:47:19;;;;;;;5.50;1.42;;;9.80;99.90;;;;;;5054302;28;20234;-70
2023/05/17 04:49:46;;;;;;;2.77;1.23;;;9.70;99.90;;;;;;5053738;28;20285;-70
2023/05/17 04:52:14;;;;;;;2.40;1.87;;;9.70;99.90;;;;;;5054304;28;20565;-70
2023/05/17 04:54:41;;;;;;;4.20;1.17;;;9.60;99.90;;;;;;5053723;28;20293;-71
2023/05/17 04:57:08;;;;;;;6.97;1.80;;;9.60;99.90;;;;;;5054248;28;20235;-71
2023/05/17 04:59:35;;;;;;;1.60;1.10;;;9.70;99.90;;;;;;5052614;28;20234;-70
2023/05/17 05:02:01;;;;;;;1.83;1.20;;;9.70;99.90;;;;;;5053952;28;20250;-70
2023/05/17 05:04:28;;;;;;;3.77;1.67;;;9.70;99.90;;;;;;5053121;28;20744;-70
2023/05/17 05:06:56;;;;;;;3.43;1.50;;;9.80;99.90;;;;;;5053592;28;20677;-70
2023/05/17 05:09:25;;;;;;;4.70;1.93;;;9.80;99.90;;;;;;5053587;28;20234;-70
2023/05/17 05:11:51;;;;;;;7.33;2.23;;;9.70;99.90;;;;;;5045763;28;20235;-70
2023/05/17 05:14:18;;;;;;;3.47;1.53;;;9.60;99.90;;;;;;5051185;28;20670;-70
2023/05/17 05:16:45;;;;;;;2.70;1.87;;;9.60;99.90;;;;;;5050990;28;20239;-72
2023/05/17 05:19:12;;;;;;;4.70;1.67;;;9.80;99.90;;;;;;5042167;28;20292;-73
2023/05/17 05:21:39;;;;;;;2.60;1.23;;;9.80;99.90;;;;;;5033226;28;20242;-72
2023/05/17 05:24:07;;;;;;;2.90;1.50;;;9.80;99.90;;;;;;5047609;28;20253;-72
2023/05/17 05:26:35;;;;;;;4.87;1.77;;;9.80;99.90;;;;;;5053707;28;20203;-72
2023/05/17 05:29:02;;;;;;;2.70;1.27;;;9.70;99.90;;;;;;5053669;28;20213;-72
2023/05/17 05:31:30;;;;;;;1.77;1.37;;;9.70;99.90;;;;;;5053338;28;20230;-72
2023/05/17 05:33:56;;;;;;;4.33;1.90;;;9.70;99.90;;;;;;5052562;28;20286;-72
2023/05/17 05:36:23;;;;;;;2.13;1.37;;;9.70;99.90;;;;;;5053122;28;20252;-72
2023/05/17 05:38:52;;;;;;;7.33;2.17;;;9.80;99.90;;;;;;5052410;28;20714;-72
2023/05/17 05:41:19;;;;;;;2.60;0.93;;;9.90;99.90;;;;;;5052967;28;20230;-73
2023/05/17 05:43:47;;;;;;;2.90;1.40;;;10.00;99.90;;;;;;5052463;28;20238;-73
2023/05/17 05:46:14;;;;;;;4.43;1.60;;;10.00;99.90;;;;;;5051903;28;20669;-78
2023/05/17 05:48:42;;;;;;;3.73;1.37;;;10.10;99.90;;;;;;5049428;28;20239;-81
2023/05/17 05:51:09;;;;;;;10.27;1.30;;;10.20;99.90;;;;;;5053180;28;20265;-78
2023/05/17 05:53:36;;;;;;;2.30;1.03;;;10.20;99.90;;;;;;5061515;28;20202;-70
2023/05/17 05:56:03;;;;;;;3.97;1.50;;;10.30;99.90;;;;;;5055335;28;20608;-72
2023/05/17 05:58:31;;;;;;;3.13;1.40;;;10.40;99.90;;;;;;5056453;28;20237;-80
2023/05/17 06:00:59;;;;;;;3.30;1.30;;;10.50;99.90;;;;;;5056770;28;20249;-83
2023/05/17 06:03:27;;;;;;;3.10;1.60;;;10.50;99.90;;;;;;5052124;28;20269;-74
2023/05/17 06:05:53;;;;;;;3.70;1.75;;;10.60;99.90;;;;;;5050662;28;20262;-73
2023/05/17 06:08:20;;;;;;;5.57;1.87;;;10.70;99.90;;;;;;5051681;28;20249;-72
2023/05/17 06:10:47;;;;;;;2.65;1.70;;;10.70;99.90;;;;;;5050345;28;20302;-76
2023/05/17 06:13:14;;;;;;;6.13;2.63;;;10.80;99.90;;;;;;5051560;28;20250;-71
2023/05/17 06:15:41;;;;;;;3.22;1.70;;;10.80;99.90;;;;;;5050658;28;20256;-71
2023/05/17 06:18:09;;;;;;;2.05;1.48;;;10.90;99.90;;;;;;5052168;28;20230;-73
2023/05/17 06:20:36;;;;;;;4.05;2.10;;;10.80;99.90;;;;;;5051914;28;20686;-74
2023/05/17 06:23:03;;;;;;;7.05;2.60;;;10.90;99.90;;;;;;5051459;28;20238;-75
2023/05/17 06:25:30;;;;;;;15.68;2.50;;;10.90;99.90;;;;;;5051619;28;20257;-74
2023/05/17 06:27:57;;;;;;;26.80;5.60;;;10.90;99.90;;;;;;5052548;28;20238;-74
2023/05/17 06:30:26;;;;;;;22.50;6.28;;;11.00;99.90;;;;;;5052299;28;20226;-74
2023/05/17 06:32:53;;;;;;;36.70;8.35;;;11.10;99.90;;;;;;5046426;28;20234;-77
2023/05/17 06:35:21;;;;;;;5.57;2.70;;;11.20;99.90;;;;;;5047450;28;20237;-73
2023/05/17 06:37:48;;;;;;;5.60;2.03;;;11.30;99.90;;;;;;5051657;28;20249;-73
2023/05/17 06:40:15;;;;;;;3.38;1.50;;;11.30;99.90;;;;;;5051399;28;20249;-73
2023/05/17 06:42:42;;;;;;;2.60;1.75;;;11.30;99.90;;;;;;5051669;28;20210;-73
2023/05/17 06:45:10;;;;;;;6.97;1.95;;;11.40;99.90;;;;;;5051792;28;20710;-74
2023/05/17 06:47:37;;;;;;;5.32;2.55;;;11.40;99.90;;;;;;5051858;28;20242;-73
2023/05/17 06:50:04;;;;;;;17.73;5.25;;;11.40;99.90;;;;;;5052401;28;20249;-73
2023/05/17 06:52:32;;;;;;;10.02;2.13;;;11.70;99.90;;;;;;5049645;28;20255;-72
2023/05/17 06:54:59;;;;;;;5.18;2.03;;;11.80;99.90;;;;;;5044671;28;20290;-72
2023/05/17 06:57:26;;;;;;;1.83;1.27;;;11.80;99.90;;;;;;5049868;28;20239;-76
2023/05/17 06:59:53;;;;;;;4.47;2.15;;;11.90;99.90;;;;;;5046037;28;20239;-76
2023/05/17 07:02:20;;;;;;;10.13;3.47;;;12.00;99.90;;;;;;5051305;28;20254;-76
2023/05/17 07:04:47;;;;;;;3.45;1.63;;;12.10;99.90;;;;;;5051538;28;20256;-75
2023/05/17 07:07:14;;;;;;;3.65;1.35;;;12.00;99.90;;;;;;5048801;28;20246;-72
2023/05/17 07:09:42;;;;;;;7.72;1.92;;;12.00;99.90;;;;;;5048586;28;20368;-78
2023/05/17 07:12:09;;;;;;;7.13;4.22;;;12.10;99.90;;;;;;5051584;28;20691;-81
2023/05/17 07:14:36;;;;;;;5.38;1.58;;;12.30;99.90;;;;;;5047381;28;20289;-82
2023/05/17 07:17:03;;;;;;;4.97;1.60;;;12.50;99.90;;;;;;5038294;28;20202;-81
2023/05/17 07:19:30;;;;;;;4.40;1.83;;;12.60;99.90;;;;;;5047291;28;20294;-83
2023/05/17 07:21:57;;;;;;;3.10;1.50;;;12.60;99.90;;;;;;5049641;28;20317;-77
2023/05/17 07:24:24;;;;;;;5.63;2.30;;;12.60;99.90;;;;;;5050617;28;20210;-83
2023/05/17 07:26:52;;;;;;;4.85;1.83;;;12.80;99.90;;;;;;5050273;28;20322;-76
2023/05/17 07:29:19;;;;;;;6.03;1.60;;;13.00;99.90;;;;;;5051134;28;20348;-77
2023/05/17 07:31:46;;;;;;;7.88;1.92;;;13.00;99.90;;;;;;5050845;28;20257;-76
2023/05/17 07:34:13;;;;;;;8.15;1.90;;;13.00;99.90;;;;;;5050972;28;20246;-74
2023/05/17 07:36:40;;;;;;;8.60;2.55;;;13.10;99.90;;;;;;5050936;28;20254;-71
2023/05/17 07:39:08;;;;;;;1.83;1.40;;;13.20;99.90;;;;;;5051113;28;20679;-72
2023/05/17 07:41:36;;;;;;;2.75;1.48;;;13.30;99.90;;;;;;5050466;28;20658;-71
2023/05/17 07:44:04;;;;;;;3.08;1.92;;;13.40;99.90;;;;;;5050332;28;20245;-72
2023/05/17 07:46:31;;;;;;;161.50;143.57;;;13.60;99.90;;;;;;5050080;28;20589;-74
2023/05/17 07:48:58;;;;;;;8.77;3.10;;;13.60;99.90;;;;;;5050265;28;20234;-72
2023/05/17 07:51:25;;;;;;;5.68;1.92;;;13.70;99.90;;;;;;5049957;28;20242;-69
2023/05/17 07:53:52;;;;;;;4.15;1.92;;;13.80;99.90;;;;;;5049981;28;20207;-71
2023/05/17 07:56:19;;;;;;;5.55;1.83;;;13.90;99.90;;;;;;5043708;28;20241;-75
2023/05/17 07:58:46;;;;;;;2.80;1.33;;;14.00;99.90;;;;;;5030178;28;20227;-74
2023/05/17 08:01:14;;;;;;;2.78;1.90;;;14.00;99.90;;;;;;5047320;28;20250;-74
2023/05/17 08:03:46;;;;;;;3.83;2.15;;;13.90;99.90;;;;;;5043704;28;20239;-73
2023/05/17 08:06:13;;;;;;;3.30;2.00;;;13.90;99.90;;;;;;5049772;28;20241;-73
2023/05/17 08:08:41;;;;;;;5.22;1.85;;;14.00;99.90;;;;;;5049445;28;20239;-73
2023/05/17 08:11:08;;;;;;;4.85;2.30;;;14.00;99.90;;;;;;5049772;28;20235;-73
2023/05/17 08:13:35;;;;;;;3.05;2.10;;;14.00;99.90;;;;;;5050133;28;20335;-72
2023/05/17 08:16:02;;;;;;;4.53;1.15;;;14.10;99.90;;;;;;5050788;28;20327;-71
2023/05/17 08:18:30;;;;;;;3.75;2.10;;;14.20;99.90;;;;;;5049863;28;20293;-73
2023/05/17 08:20:57;;;;;;;5.78;1.50;;;14.30;99.90;;;;;;5049593;28;20288;-73
2023/05/17 08:23:25;;;;;;;4.13;1.50;;;14.30;99.90;;;;;;5051044;28;20242;-70
2023/05/17 08:25:52;;;;;;;5.10;1.42;;;14.50;99.90;;;;;;5048726;28;20280;-72
2023/05/17 08:28:19;;;;;;;8.85;2.22;;;14.80;99.90;;;;;;5049136;28;20686;-73
2023/05/17 08:30:46;;;;;;;2.55;1.65;;;14.80;99.90;;;;;;5050160;28;20214;-73
2023/05/17 08:33:13;;;;;;;1.67;1.33;;;14.70;99.90;;;;;;5048759;28;20642;-71
2023/05/17 08:35:41;;;;;;;2.30;0.98;;;14.80;99.90;;;;;;5049748;28;20257;-74
2023/05/17 08:38:08;;;;;;;4.10;1.90;;;15.00;99.90;;;;;;5049605;28;20206;-76
2023/05/17 08:40:35;;;;;;;8.48;2.30;;;15.20;99.90;;;;;;5049049;28;20223;-70
2023/05/17 08:43:03;;;;;;;2.53;1.15;;;15.20;99.90;;;;;;5050381;28;20218;-71
2023/05/17 08:45:31;;;;;;;10.23;2.28;;;15.20;99.90;;;;;;5050084;28;20237;-76
2023/05/17 08:48:00;;;;;;;2.85;1.60;;;15.30;99.90;;;;;;5050274;28;20203;-75
2023/05/17 08:50:29;;;;;;;4.40;1.75;;;15.30;99.90;;;;;;5049567;28;20267;-74
2023/05/17 08:52:58;;;;;;;7.85;2.22;;;15.60;99.90;;;;;;5050155;28;20290;-73
2023/05/17 08:55:26;;;;;;;3.90;1.73;;;16.30;99.90;;;;;;5049977;28;20203;-73
2023/05/17 08:57:54;;;;;;;3.78;1.23;;;16.90;99.90;;;;;;5050388;28;20206;-73
2023/05/17 09:00:23;;;;;;;2.80;1.25;;;16.80;99.90;;;;;;5050207;28;20296;-75
2023/05/17 09:02:50;;;;;;;5.05;2.00;;;16.50;99.90;;;;;;5050068;28;20242;-78
2023/05/17 09:05:17;;;;;;;4.05;1.67;;;16.30;99.90;;;;;;5052758;28;20295;-74
2023/05/17 09:07:44;;;;;;;5.32;1.38;;;16.50;99.90;;;;;;5054071;28;20869;-73
2023/05/17 09:10:13;;;;;;;8.98;1.77;;;16.20;99.90;;;;;;5053772;28;20211;-80
2023/05/17 09:12:40;;;;;;;3.50;1.80;;;16.30;99.90;;;;;;5053303;28;20250;-78
2023/05/17 09:15:15;;;;;;;4.65;1.55;;;16.80;99.90;;;;;;5053783;28;20297;-80
2023/05/17 09:17:43;;;;;;;8.27;1.73;;;17.40;99.90;;;;;;5053704;28;20198;-80
2023/05/17 09:20:10;;;;;;;1.60;1.27;;;17.40;99.90;;;;;;5053392;28;20238;-79
2023/05/17 09:22:37;;;;;;;3.17;1.20;;;18.60;99.90;;;;;;5053373;28;20256;-75
2023/05/17 09:25:05;;;;;;;40.15;32.42;;;19.20;99.90;;;;;;5053163;28;20214;-74
2023/05/17 09:27:33;;;;;;;5.38;4.20;;;18.70;99.90;;;;;;5052784;28;20695;-73
2023/05/17 09:30:00;;;;;;;4.55;1.52;;;19.90;99.90;;;;;;5052689;28;20261;-72
2023/05/17 09:32:27;;;;;;;2.95;1.63;;;21.00;99.90;;;;;;5052653;28;20242;-70
2023/05/17 09:34:56;;;;;;;3.15;1.45;;;22.80;99.90;;;;;;5052786;28;20211;-70
2023/05/17 09:37:24;;;;;;;1.48;1.35;;;23.00;99.90;;;;;;5052983;28;20214;-71
2023/05/17 09:39:52;;;;;;;3.88;1.20;;;23.50;99.90;;;;;;5046331;28;20245;-72
2023/05/17 09:42:19;;;;;;;2.10;1.70;;;24.10;99.90;;;;;;5053039;28;20295;-74
2023/05/17 09:44:52;;;;;;;3.58;2.00;;;21.00;99.90;;;;;;5053076;28;20681;-73
2023/05/17 09:47:23;;;;;;;3.40;1.55;;;20.60;99.90;;;;;;5052583;28;20741;-77
2023/05/17 09:49:50;;;;;;;9.50;2.53;;;20.90;99.90;;;;;;5040277;28;20250;-77
2023/05/17 09:52:19;;;;;;;2.40;1.38;;;21.70;99.90;;;;;;5050343;28;20758;-75
2023/05/17 09:54:52;;;;;;;6.60;2.03;;;22.60;99.90;;;;;;5044288;28;20603;-83
2023/05/17 09:57:19;;;;;;;2.20;1.20;;;25.90;99.90;;;;;;5052981;28;20697;-77
2023/05/17 09:59:48;;;;;;;7.30;2.83;;;24.20;99.90;;;;;;5052627;28;20616;-81
2023/05/17 10:02:21;;;;;;;3.85;1.50;;;25.30;99.90;;;;;;5053022;28;20221;-75
2023/05/17 10:04:51;;;;;;;13.52;2.20;;;25.90;99.90;;;;;;5052444;28;20567;-75
2023/05/17 10:07:21;;;;;;;4.78;1.70;;;23.80;99.90;;;;;;5052830;28;20322;-75
2023/05/17 10:09:49;;;;;;;3.35;1.88;;;24.30;99.90;;;;;;5052090;28;20235;-80
2023/05/17 10:12:18;;;;;;;3.03;1.83;;;24.60;99.90;;;;;;5033124;28;20211;-76
2023/05/17 10:14:46;;;;;;;4.68;2.08;;;25.60;99.90;;;;;;5032717;28;20520;-80
2023/05/17 10:17:15;;;;;;;2.65;1.63;;;26.00;99.90;;;;;;5031572;28;20675;-78
2023/05/17 10:19:43;;;;;;;2.40;1.50;;;26.60;99.90;;;;;;5032286;28;20215;-80
2023/05/17 10:22:11;;;;;;;4.47;1.45;;;27.10;99.90;;;;;;5032589;28;20246;-79
2023/05/17 10:24:38;;;;;;;5.07;2.00;;;26.60;99.90;;;;;;5041599;28;20207;-80
2023/05/17 10:27:06;;;;;;;3.53;1.85;;;27.40;99.90;;;;;;5052577;28;20288;-81
2023/05/17 10:29:34;;;;;;;8.23;2.08;;;27.10;99.90;;;;;;5051917;28;20222;-78
2023/05/17 10:32:06;;;;;;;3.10;1.83;;;27.30;99.90;;;;;;5051330;28;20261;-76
2023/05/17 10:34:35;;;;;;;7.82;2.28;;;22.80;99.90;;;;;;5050733;28;20290;-76
2023/05/17 10:37:03;;;;;;;2.80;1.80;;;19.90;99.90;;;;;;5051938;28;20213;-76
2023/05/17 10:39:33;;;;;;;4.70;1.85;;;18.80;99.90;;;;;;5051681;28;20667;-72
2023/05/17 10:42:02;;;;;;;6.25;3.25;;;18.50;99.90;;;;;;5052158;28;20289;-72
2023/05/17 10:44:32;;;;;;;2.90;2.17;;;18.30;99.90;;;;;;5051915;28;20205;-71
2023/05/17 10:47:00;;;;;;;5.10;1.83;;;18.30;99.90;;;;;;5051983;28;20238;-71
2023/05/17 10:49:30;;;;;;;3.58;1.77;;;18.40;99.90;;;;;;5051633;28;20206;-73
2023/05/17 10:51:59;;;;;;;5.93;1.65;;;18.10;99.90;;;;;;5052238;28;20206;-75
2023/05/17 10:54:47;;;;;;;3.17;2.50;;;18.00;99.90;;;;;;5050869;28;20296;-74
2023/05/17 10:57:22;;;;;;;3.10;1.40;;;18.00;99.90;;;;;;5051893;28;20241;-76
2023/05/17 11:00:00;;;;;;;3.25;2.03;;;18.20;99.90;;;;;;5051427;28;20670;-74
2023/05/17 11:02:27;;;;;;;4.53;1.95;;;18.00;99.90;;;;;;5051280;28;20214;-76
2023/05/17 11:04:56;;;;;;;3.00;1.58;;;18.10;99.90;;;;;;5031937;28;20707;-77
2023/05/17 11:07:28;;;;;;;6.90;1.60;;;18.20;99.90;;;;;;5031716;28;20235;-77
2023/05/17 11:09:56;;;;;;;1.77;1.35;;;17.90;99.90;;;;;;5031807;28;20729;-77
2023/05/17 11:12:34;;;;;;;3.67;1.60;;;18.10;99.90;;;;;;5031725;28;20242;-77
2023/05/17 11:15:05;;;;;;;3.38;1.55;;;18.30;99.90;;;;;;5031434;28;20282;-72
2023/05/17 11:17:37;;;;;;;3.47;1.48;;;18.30;99.90;;;;;;5038200;28;20261;-76
2023/05/17 11:20:09;;;;;;;1.92;1.63;;;18.20;99.90;;;;;;5035061;28;20235;-75
2023/05/17 11:22:40;;;;;;;3.33;2.00;;;18.40;99.90;;;;;;5034598;28;20203;-74
2023/05/17 11:25:08;;;;;;;2.38;1.80;;;18.50;99.90;;;;;;5051222;28;20584;-75
2023/05/17 11:27:44;;;;;;;4.85;1.80;;;18.40;99.90;;;;;;5050697;28;20238;-74
2023/05/17 11:30:18;;;;;;;4.32;2.00;;;18.40;99.90;;;;;;5046325;28;20227;-81
2023/05/17 11:32:50;;;;;;;6.70;1.75;;;18.40;99.90;;;;;;5038489;28;20657;-74
2023/05/17 11:35:18;;;;;;;3.05;1.17;;;18.10;99.90;;;;;;5031480;28;20609;-82
2023/05/17 11:37:48;;;;;;;5.30;1.90;;;17.80;99.90;;;;;;5050481;28;20773;-78
2023/05/17 11:40:25;;;;;;;2.53;1.80;;;18.10;99.90;;;;;;5051424;28;20207;-80
2023/05/17 11:43:10;;;;;;;5.05;2.20;;;18.60;99.90;;;;;;5051158;28;20252;-86
2023/05/17 11:45:49;;;;;;;3.05;1.63;;;18.70;99.90;;;;;;5050428;28;20209;-78
2023/05/17 11:48:17;;;;;;;3.10;1.90;;;18.30;99.90;;;;;;5044848;28;20227;-74
2023/05/17 11:50:45;;;;;;;3.67;1.85;;;18.20;99.90;;;;;;5041580;28;20727;-73
2023/05/17 11:53:15;;;;;;;7.03;3.35;;;18.30;99.90;;;;;;5046460;28;20806;-74
2023/05/17 11:55:43;;;;;;;9.27;3.03;;;18.80;99.90;;;;;;5050445;28;20253;-75
2023/05/17 11:58:12;;;;;;;2.45;1.33;;;18.60;99.90;;;;;;5050460;28;20241;-75
2023/05/17 12:00:40;;;;;;;6.30;1.67;;;18.90;99.90;;;;;;5050426;28;20674;-76
2023/05/17 12:03:21;;;;;;;5.65;2.10;;;18.90;99.90;;;;;;5050545;28;20214;-75
2023/05/17 12:05:49;;;;;;;1.95;1.30;;;19.10;99.90;;;;;;5049838;28;20276;-74
2023/05/17 12:08:19;;;;;;;2.17;1.48;;;19.20;99.90;;;;;;5050342;28;20281;-76
2023/05/17 12:10:48;;;;;;;1.98;1.50;;;19.40;99.90;;;;;;5050331;28;20234;-77
2023/05/17 12:13:15;;;;;;;2.67;1.35;;;19.20;99.90;;;;;;5050591;28;20253;-75
2023/05/17 12:15:45;;;;;;;2.80;1.70;;;19.00;99.90;;;;;;5049511;28;20246;-76
2023/05/17 12:18:13;;;;;;;2.55;2.05;;;18.70;99.90;;;;;;5050231;28;20211;-75
2023/05/17 12:20:53;;;;;;;4.00;1.70;;;19.00;99.90;;;;;;5050229;28;20591;-74
2023/05/17 12:23:29;;;;;;;6.13;2.00;;;19.40;99.90;;;;;;5050978;28;20686;-76
2023/05/17 12:26:06;;;;;;;2.67;2.00;;;19.20;99.90;;;;;;5050696;28;20253;-80
2023/05/17 12:28:33;;;;;;;3.65;1.55;;;19.50;99.90;;;;;;5050153;28;20240;-78
2023/05/17 12:31:02;;;;;;;2.78;1.35;;;18.90;99.90;;;;;;5050561;28;20230;-77
2023/05/17 12:33:31;;;;;;;5.13;2.40;;;18.40;99.90;;;;;;5045076;28;20209;-76
2023/05/17 12:35:59;;;;;;;1.67;1.30;;;18.40;99.90;;;;;;5038654;28;20702;-74
2023/05/17 12:38:30;;;;;;;4.35;1.45;;;18.40;99.90;;;;;;5049858;28;20211;-76
2023/05/17 12:40:58;;;;;;;2.97;2.00;;;18.90;99.90;;;;;;5054133;28;20217;-76
2023/05/17 12:43:25;;;;;;;6.57;1.70;;;19.20;99.90;;;;;;5053690;28;20213;-74
2023/05/17 12:45:53;;;;;;;4.40;1.60;;;19.10;99.90;;;;;;5054517;28;20238;-77
2023/05/17 12:48:25;;;;;;;5.93;2.05;;;19.20;99.90;;;;;;5054541;28;20261;-75
2023/05/17 12:50:54;;;;;;;2.80;1.48;;;19.30;99.90;;;;;;5054620;28;20239;-75
2023/05/17 12:53:21;;;;;;;2.00;1.38;;;19.30;99.90;;;;;;5054185;28;20210;-74